Time;durP1;ratioP1;P1;durP2;ratioP2;P2;SDS_P1;SDS_P2;PMS_P1;PMS_P2;Temp;Humidity;BMP_temperature;BMP_pressure;BME280_temperature;BME280_humidity;BME280_pressure;Samples;Min_cycle;Max_cycle;Signal;HPM_P1;HPM_P2
2022/07/17 00:00:47;;;;;;;0.40;0.30;;;18.70;87.30;;;;;;5019366;28;20486;-73
2022/07/17 00:03:15;;;;;;;0.50;0.50;;;18.70;85.90;;;;;;5010238;28;20482;-73
2022/07/17 00:05:42;;;;;;;0.40;0.30;;;18.50;85.90;;;;;;5020625;28;20387;-73
2022/07/17 00:08:08;;;;;;;0.40;0.30;;;18.60;87.90;;;;;;5014569;28;20763;-74
2022/07/17 00:10:36;;;;;;;0.50;0.40;;;18.50;89.30;;;;;;5020031;28;20388;-74
2022/07/17 00:13:02;;;;;;;0.40;0.20;;;18.50;89.80;;;;;;5022728;28;20605;-73
2022/07/17 00:15:28;;;;;;;0.40;0.30;;;18.40;89.30;;;;;;5029067;28;20839;-73
2022/07/17 00:17:54;;;;;;;0.40;0.30;;;18.40;88.40;;;;;;5015917;28;20722;-74
2022/07/17 00:20:20;;;;;;;0.50;0.50;;;18.40;87.30;;;;;;5027165;28;20392;-73
2022/07/17 00:22:46;;;;;;;0.40;0.40;;;18.40;87.90;;;;;;5011947;28;20432;-73
2022/07/17 00:25:13;;;;;;;0.40;0.20;;;18.20;88.50;;;;;;5025197;28;20549;-73
2022/07/17 00:27:39;;;;;;;0.70;0.60;;;18.10;90.40;;;;;;5020703;28;20960;-73
2022/07/17 00:30:06;;;;;;;0.40;0.20;;;18.00;89.90;;;;;;5009543;28;20477;-74
2022/07/17 00:32:31;;;;;;;0.40;0.30;;;18.00;89.80;;;;;;5022620;28;20474;-72
2022/07/17 00:34:57;;;;;;;0.40;0.30;;;18.10;90.90;;;;;;5016485;28;20467;-73
2022/07/17 00:37:23;;;;;;;0.40;0.30;;;18.00;90.70;;;;;;5021132;28;20397;-72
2022/07/17 00:39:49;;;;;;;0.40;0.20;;;17.90;91.30;;;;;;5023457;28;20423;-73
2022/07/17 00:42:16;;;;;;;0.40;0.30;;;17.90;91.40;;;;;;5021153;28;20378;-73
2022/07/17 00:44:43;;;;;;;0.40;0.20;;;17.90;91.10;;;;;;5028134;28;20402;-73
2022/07/17 00:47:20;;;;;;;0.40;0.20;;;18.00;90.80;;;;;;5027452;28;20451;-73
2022/07/17 00:49:47;;;;;;;0.40;0.30;;;18.00;91.30;;;;;;5015058;28;20889;-73
2022/07/17 00:52:13;;;;;;;1.00;0.90;;;18.00;90.80;;;;;;5010993;28;20445;-74
2022/07/17 00:54:41;;;;;;;0.40;0.30;;;18.10;90.40;;;;;;5008881;28;20753;-73
2022/07/17 00:57:09;;;;;;;0.40;0.20;;;17.90;90.70;;;;;;5025107;28;20406;-73
2022/07/17 00:59:35;;;;;;;0.40;0.30;;;17.80;90.90;;;;;;5027896;28;20497;-74
2022/07/17 01:02:07;;;;;;;0.40;0.20;;;17.90;91.40;;;;;;5013239;28;20858;-73
2022/07/17 01:04:33;;;;;;;0.70;0.70;;;17.80;91.80;;;;;;4999794;28;20394;-73
2022/07/17 01:07:00;;;;;;;0.40;0.30;;;17.80;91.60;;;;;;5003079;28;20496;-73
2022/07/17 01:09:29;;;;;;;0.40;0.20;;;17.90;91.50;;;;;;5019439;28;20414;-73
2022/07/17 01:11:56;;;;;;;0.40;0.30;;;17.90;93.00;;;;;;5024995;28;20401;-73
2022/07/17 01:14:23;;;;;;;0.40;0.30;;;17.90;92.50;;;;;;5023652;28;20387;-73
2022/07/17 01:16:51;;;;;;;0.40;0.30;;;18.00;91.00;;;;;;5026050;28;20868;-73
2022/07/17 01:19:17;;;;;;;0.40;0.20;;;18.00;90.80;;;;;;5028498;28;20379;-73
2022/07/17 01:21:46;;;;;;;0.40;0.30;;;18.00;91.60;;;;;;5012856;28;20397;-73
2022/07/17 01:24:12;;;;;;;0.40;0.30;;;17.90;92.20;;;;;;5013603;28;20502;-73
2022/07/17 01:26:42;;;;;;;0.40;0.20;;;17.80;91.20;;;;;;5027300;28;20493;-73
2022/07/17 01:29:09;;;;;;;0.70;0.70;;;17.80;93.20;;;;;;5026167;28;20439;-73
2022/07/17 01:31:35;;;;;;;0.40;0.20;;;17.80;92.10;;;;;;5020079;28;20392;-73
2022/07/17 01:34:01;;;;;;;0.40;0.30;;;17.90;91.90;;;;;;4990969;28;20377;-73
2022/07/17 01:36:26;;;;;;;0.40;0.20;;;17.90;91.90;;;;;;5010481;28;20414;-73
2022/07/17 01:38:52;;;;;;;0.40;0.30;;;17.90;92.50;;;;;;5018935;28;20395;-73
2022/07/17 01:41:18;;;;;;;0.40;0.30;;;17.70;91.70;;;;;;5014625;28;20482;-72
2022/07/17 01:43:44;;;;;;;0.40;0.30;;;17.90;93.10;;;;;;5016798;28;20420;-72
2022/07/17 01:46:09;;;;;;;0.40;0.22;;;17.80;91.60;;;;;;5025394;28;20782;-72
2022/07/17 01:48:35;;;;;;;0.40;0.30;;;17.80;91.80;;;;;;5026825;28;20431;-73
2022/07/17 01:51:03;;;;;;;0.40;0.30;;;17.90;92.40;;;;;;5026264;28;20395;-73
2022/07/17 01:53:29;;;;;;;0.40;0.30;;;17.90;92.00;;;;;;5012345;28;20622;-73
2022/07/17 01:55:54;;;;;;;0.40;0.40;;;17.80;91.30;;;;;;5025778;28;20415;-73
2022/07/17 01:58:20;;;;;;;0.40;0.20;;;17.70;92.00;;;;;;5026485;28;20417;-72
2022/07/17 02:00:46;;;;;;;0.50;0.40;;;17.70;92.90;;;;;;5009166;28;20799;-72
2022/07/17 02:03:12;;;;;;;0.40;0.30;;;17.60;93.40;;;;;;5012850;28;20394;-72
2022/07/17 02:05:37;;;;;;;0.40;0.30;;;17.50;93.40;;;;;;5027070;28;20402;-72
2022/07/17 02:08:03;;;;;;;0.40;0.40;;;17.50;94.10;;;;;;5013578;28;20548;-72
2022/07/17 02:10:29;;;;;;;0.40;0.20;;;17.40;94.60;;;;;;5014343;28;20395;-72
2022/07/17 02:12:57;;;;;;;0.40;0.40;;;17.40;94.00;;;;;;4997584;28;20424;-72
2022/07/17 02:15:22;;;;;;;0.40;0.20;;;17.40;93.50;;;;;;5023975;28;20464;-72
2022/07/17 02:17:48;;;;;;;0.40;0.20;;;17.40;93.60;;;;;;5026784;28;20801;-72
2022/07/17 02:20:14;;;;;;;0.40;0.30;;;17.40;93.20;;;;;;5025646;28;20396;-72
2022/07/17 02:22:40;;;;;;;0.40;0.20;;;17.40;92.30;;;;;;5008591;28;20408;-73
2022/07/17 02:25:08;;;;;;;0.40;0.40;;;17.40;92.70;;;;;;5006165;28;20391;-73
2022/07/17 02:27:34;;;;;;;0.40;0.20;;;17.40;93.80;;;;;;5022400;28;20499;-73
2022/07/17 02:30:08;;;;;;;0.40;0.30;;;17.50;93.20;;;;;;5007779;28;20873;-72
2022/07/17 02:32:34;;;;;;;0.40;0.40;;;17.50;95.30;;;;;;5027898;28;20394;-72
2022/07/17 02:34:59;;;;;;;0.40;0.20;;;17.40;93.90;;;;;;5015968;28;20384;-72
2022/07/17 02:37:25;;;;;;;0.40;0.20;;;17.40;94.40;;;;;;5027040;28;20930;-73
2022/07/17 02:39:54;;;;;;;0.40;0.20;;;17.40;93.60;;;;;;5013211;28;20454;-73
2022/07/17 02:42:21;;;;;;;0.40;0.20;;;17.40;94.90;;;;;;5014649;28;20391;-73
2022/07/17 02:44:47;;;;;;;0.40;0.30;;;17.30;96.50;;;;;;5026177;28;20541;-73
2022/07/17 02:47:20;;;;;;;0.40;0.30;;;17.40;95.50;;;;;;5014802;28;20412;-73
2022/07/17 02:49:45;;;;;;;0.50;0.40;;;17.30;94.20;;;;;;5010556;28;20467;-73
2022/07/17 02:52:11;;;;;;;0.40;0.28;;;17.30;94.00;;;;;;5026204;28;20456;-73
2022/07/17 02:54:37;;;;;;;0.40;0.20;;;17.30;94.50;;;;;;5006883;28;20496;-72
2022/07/17 02:57:02;;;;;;;0.40;0.30;;;17.30;95.70;;;;;;5019719;28;20481;-73
2022/07/17 02:59:28;;;;;;;0.40;0.20;;;17.30;95.90;;;;;;5020225;28;20413;-73
2022/07/17 03:01:54;;;;;;;0.40;0.40;;;17.20;95.20;;;;;;5007102;28;20462;-73
2022/07/17 03:04:19;;;;;;;0.40;0.20;;;17.20;95.90;;;;;;5026629;28;20387;-72
2022/07/17 03:06:45;;;;;;;0.40;0.20;;;17.10;95.40;;;;;;5011162;28;20412;-73
2022/07/17 03:09:11;;;;;;;0.40;0.20;;;17.20;97.40;;;;;;5007830;28;20404;-72
2022/07/17 03:11:36;;;;;;;0.40;0.30;;;17.10;96.20;;;;;;5028899;28;20395;-73
2022/07/17 03:14:02;;;;;;;0.40;0.20;;;17.10;95.50;;;;;;5012814;28;20389;-76
2022/07/17 03:16:28;;;;;;;0.40;0.20;;;17.00;95.80;;;;;;5029412;28;20879;-72
2022/07/17 03:18:53;;;;;;;0.40;0.20;;;17.10;97.80;;;;;;4992645;28;20492;-73
2022/07/17 03:21:19;;;;;;;0.40;0.30;;;17.00;95.60;;;;;;5021026;28;20409;-73
2022/07/17 03:23:45;;;;;;;0.40;0.20;;;17.00;95.60;;;;;;5027663;28;20482;-73
2022/07/17 03:26:10;;;;;;;0.40;0.20;;;17.10;95.80;;;;;;5010873;28;20404;-73
2022/07/17 03:28:36;;;;;;;0.40;0.20;;;17.00;95.90;;;;;;5023753;28;20484;-73
2022/07/17 03:31:02;;;;;;;0.40;0.20;;;17.10;95.40;;;;;;5018788;28;20384;-74
2022/07/17 03:33:27;;;;;;;1.00;0.70;;;17.00;95.70;;;;;;5011502;28;20404;-74
2022/07/17 03:35:53;;;;;;;0.40;0.20;;;17.00;96.60;;;;;;5029853;28;20391;-74
2022/07/17 03:38:19;;;;;;;0.40;0.30;;;17.10;95.60;;;;;;5018754;28;20479;-74
2022/07/17 03:40:44;;;;;;;0.40;0.20;;;17.10;94.50;;;;;;5015404;28;20871;-74
2022/07/17 03:43:10;;;;;;;0.40;0.30;;;17.00;95.00;;;;;;5025781;28;20891;-74
2022/07/17 03:45:36;;;;;;;0.40;0.20;;;17.00;96.40;;;;;;5025251;28;20474;-74
2022/07/17 03:48:01;;;;;;;0.40;0.40;;;16.90;97.10;;;;;;5021752;28;20512;-74
2022/07/17 03:50:27;;;;;;;0.40;0.20;;;16.90;96.00;;;;;;5025402;28;20403;-74
2022/07/17 03:52:53;;;;;;;0.40;0.20;;;16.80;96.50;;;;;;5021394;28;20951;-74
2022/07/17 03:55:18;;;;;;;0.40;0.20;;;16.90;98.90;;;;;;5020687;28;20407;-74
2022/07/17 03:57:44;;;;;;;0.50;0.40;;;16.80;98.40;;;;;;5024956;28;20419;-74
2022/07/17 04:00:10;;;;;;;0.40;0.30;;;16.80;98.50;;;;;;5015262;28;20392;-74
2022/07/17 04:02:36;;;;;;;0.65;0.65;;;16.70;97.90;;;;;;5011820;28;20795;-73
2022/07/17 04:05:01;;;;;;;0.40;0.20;;;16.60;98.30;;;;;;5029360;28;20466;-73
2022/07/17 04:07:27;;;;;;;0.40;0.20;;;16.70;98.40;;;;;;5013300;28;20773;-73
2022/07/17 04:09:58;;;;;;;0.40;0.30;;;16.60;99.60;;;;;;5023315;28;20482;-74
2022/07/17 04:12:24;;;;;;;0.40;0.30;;;16.60;99.90;;;;;;5019719;28;20390;-73
2022/07/17 04:14:50;;;;;;;0.40;0.30;;;16.50;99.60;;;;;;5001710;28;20529;-73
2022/07/17 04:17:16;;;;;;;0.40;0.20;;;16.50;99.30;;;;;;5005244;28;20399;-73
2022/07/17 04:19:42;;;;;;;0.40;0.20;;;16.50;99.90;;;;;;5021084;28;20900;-73
2022/07/17 04:22:07;;;;;;;1.20;0.90;;;16.70;97.80;;;;;;5018469;28;20399;-73
2022/07/17 04:24:33;;;;;;;0.40;0.30;;;16.80;99.50;;;;;;5020563;28;20532;-73
2022/07/17 04:26:58;;;;;;;0.40;0.20;;;16.70;98.30;;;;;;5018801;28;20527;-73
2022/07/17 04:29:24;;;;;;;0.50;0.50;;;16.70;98.90;;;;;;5021228;28;20418;-73
2022/07/17 04:31:51;;;;;;;0.73;0.57;;;16.70;99.90;;;;;;5017423;28;20872;-73
2022/07/17 04:34:17;;;;;;;0.50;0.40;;;16.70;99.90;;;;;;5026304;28;20399;-73
2022/07/17 04:36:43;;;;;;;0.40;0.40;;;16.80;99.90;;;;;;5025810;28;20832;-74
2022/07/17 04:39:09;;;;;;;0.40;0.40;;;16.90;96.60;;;;;;5028799;28;20375;-73
2022/07/17 04:41:34;;;;;;;0.40;0.20;;;17.00;98.20;;;;;;5013137;28;20500;-73
2022/07/17 04:44:00;;;;;;;0.40;0.20;;;17.00;97.70;;;;;;5016235;28;20397;-73
2022/07/17 04:46:25;;;;;;;0.80;0.70;;;16.90;98.60;;;;;;5012861;28;20399;-73
2022/07/17 04:48:51;;;;;;;0.40;0.30;;;16.90;98.60;;;;;;5008454;28;20388;-73
2022/07/17 04:51:17;;;;;;;0.40;0.30;;;16.80;99.60;;;;;;5014957;28;20918;-73
2022/07/17 04:53:43;;;;;;;0.40;0.20;;;16.70;99.90;;;;;;5026023;28;20480;-73
2022/07/17 04:56:09;;;;;;;0.40;0.20;;;16.70;99.90;;;;;;4991039;28;20409;-73
2022/07/17 04:58:35;;;;;;;0.40;0.20;;;16.70;99.90;;;;;;5010051;28;20692;-73
2022/07/17 05:01:00;;;;;;;0.40;0.30;;;16.70;99.90;;;;;;5010240;28;20432;-73
2022/07/17 05:03:26;;;;;;;0.40;0.30;;;16.70;99.90;;;;;;5016461;28;20436;-73
2022/07/17 05:05:52;;;;;;;0.40;0.20;;;16.70;99.90;;;;;;5022162;28;20452;-73
2022/07/17 05:08:18;;;;;;;0.40;0.20;;;16.90;99.90;;;;;;5025365;28;20422;-74
2022/07/17 05:10:45;;;;;;;0.40;0.30;;;16.90;99.90;;;;;;5010002;28;20482;-74
2022/07/17 05:13:12;;;;;;;0.40;0.40;;;16.90;99.90;;;;;;4999178;28;20400;-73
2022/07/17 05:15:38;;;;;;;0.40;0.22;;;17.10;99.90;;;;;;5015962;28;20392;-73
2022/07/17 05:18:03;;;;;;;0.90;0.70;;;17.10;99.90;;;;;;5008509;28;20392;-74
2022/07/17 05:20:29;;;;;;;0.40;0.30;;;17.20;99.90;;;;;;5021954;28;20745;-73
2022/07/17 05:22:56;;;;;;;0.70;0.70;;;17.10;99.90;;;;;;5019027;28;20533;-73
2022/07/17 05:25:22;;;;;;;0.40;0.40;;;17.00;99.90;;;;;;4998234;28;20887;-73
2022/07/17 05:27:47;;;;;;;0.40;0.20;;;17.20;99.90;;;;;;5018092;28;20489;-73
2022/07/17 05:30:14;;;;;;;0.40;0.20;;;17.30;99.90;;;;;;5013909;28;20455;-72
2022/07/17 05:32:40;;;;;;;0.40;0.20;;;17.30;99.90;;;;;;4995960;28;20441;-75
2022/07/17 05:35:06;;;;;;;0.40;0.38;;;17.40;99.90;;;;;;5028175;28;20411;-75
2022/07/17 05:37:33;;;;;;;0.40;0.20;;;17.40;99.90;;;;;;5026798;28;20397;-75
2022/07/17 05:39:59;;;;;;;0.40;0.20;;;17.30;99.90;;;;;;5007165;28;20556;-75
2022/07/17 05:42:24;;;;;;;0.40;0.20;;;17.40;99.90;;;;;;5009639;28;20504;-71
2022/07/17 05:44:50;;;;;;;0.40;0.20;;;17.40;99.90;;;;;;5020315;28;20468;-75
2022/07/17 05:47:15;;;;;;;0.40;0.20;;;17.50;99.90;;;;;;5026384;28;20417;-72
2022/07/17 05:49:41;;;;;;;1.30;1.20;;;17.50;99.90;;;;;;5009752;28;20869;-75
2022/07/17 05:52:07;;;;;;;0.60;0.50;;;17.50;99.90;;;;;;5012914;28;20999;-76
2022/07/17 05:54:33;;;;;;;0.40;0.20;;;17.50;99.90;;;;;;5025313;28;20420;-73
2022/07/17 05:56:59;;;;;;;0.40;0.20;;;17.70;99.90;;;;;;5023724;28;20414;-75
2022/07/17 05:59:25;;;;;;;0.40;0.30;;;17.70;99.90;;;;;;5015588;28;20436;-74
2022/07/17 06:01:51;;;;;;;0.40;0.20;;;17.90;99.90;;;;;;4995795;28;20394;-73
2022/07/17 06:04:16;;;;;;;0.40;0.28;;;18.00;99.50;;;;;;5008902;28;20412;-74
2022/07/17 06:06:42;;;;;;;0.40;0.30;;;18.00;98.90;;;;;;5011387;28;20825;-74
2022/07/17 06:09:08;;;;;;;0.40;0.30;;;17.90;98.80;;;;;;5026152;28;20387;-72
2022/07/17 06:11:34;;;;;;;0.40;0.20;;;18.00;99.90;;;;;;5027500;28;20705;-72
2022/07/17 06:13:59;;;;;;;0.40;0.20;;;18.00;98.20;;;;;;5025575;28;20399;-72
2022/07/17 06:16:25;;;;;;;0.70;0.60;;;18.00;98.40;;;;;;5028153;28;20380;-69
2022/07/17 06:18:51;;;;;;;0.40;0.30;;;18.20;98.30;;;;;;5020075;28;20392;-73
2022/07/17 06:21:16;;;;;;;0.40;0.25;;;18.20;98.10;;;;;;5020239;28;20394;-70
2022/07/17 06:23:42;;;;;;;0.40;0.20;;;18.30;98.10;;;;;;5008151;28;20464;-73
2022/07/17 06:26:08;;;;;;;0.40;0.20;;;18.30;98.30;;;;;;5013578;28;20711;-70
2022/07/17 06:28:33;;;;;;;0.40;0.30;;;18.40;98.70;;;;;;4995160;28;20416;-69
2022/07/17 06:30:59;;;;;;;0.40;0.20;;;18.40;98.60;;;;;;5024448;28;20399;-72
2022/07/17 06:33:25;;;;;;;0.40;0.30;;;18.30;99.10;;;;;;5008308;28;20488;-70
2022/07/17 06:35:51;;;;;;;0.40;0.30;;;18.50;99.10;;;;;;5007690;28;20737;-72
2022/07/17 06:38:16;;;;;;;0.40;0.30;;;18.50;98.20;;;;;;5007958;28;20478;-72
2022/07/17 06:40:42;;;;;;;0.40;0.20;;;18.50;98.50;;;;;;4998635;28;20387;-72
2022/07/17 06:43:08;;;;;;;0.40;0.20;;;18.60;98.30;;;;;;5026632;28;20809;-70
2022/07/17 06:45:34;;;;;;;0.40;0.20;;;18.70;97.90;;;;;;5016023;28;20392;-71
2022/07/17 06:48:00;;;;;;;0.40;0.30;;;18.80;98.00;;;;;;5025456;28;20468;-71
2022/07/17 06:50:26;;;;;;;0.40;0.30;;;18.80;97.90;;;;;;5017167;28;20437;-70
2022/07/17 06:52:52;;;;;;;0.40;0.40;;;18.90;97.40;;;;;;5023575;28;20487;-69
2022/07/17 06:55:17;;;;;;;0.50;0.50;;;19.00;97.30;;;;;;5027456;28;20916;-72
2022/07/17 06:57:43;;;;;;;0.40;0.30;;;19.00;97.10;;;;;;5011400;28;20921;-70
2022/07/17 07:00:09;;;;;;;0.40;0.40;;;19.00;97.30;;;;;;5009940;28;20744;-72
2022/07/17 07:02:35;;;;;;;0.40;0.20;;;19.10;96.60;;;;;;5020567;28;20518;-71
2022/07/17 07:05:01;;;;;;;0.40;0.30;;;19.10;96.30;;;;;;5018686;28;20416;-71
2022/07/17 07:07:27;;;;;;;0.60;0.60;;;19.10;96.30;;;;;;5019020;28;20414;-68
2022/07/17 07:09:52;;;;;;;0.40;0.30;;;19.10;95.90;;;;;;5020861;28;20412;-72
2022/07/17 07:12:18;;;;;;;0.40;0.30;;;19.20;95.70;;;;;;5031063;28;20408;-72
2022/07/17 07:14:44;;;;;;;0.40;0.30;;;19.20;96.00;;;;;;5022886;28;20557;-70
2022/07/17 07:17:09;;;;;;;0.40;0.20;;;19.20;95.90;;;;;;5029949;28;20417;-72
2022/07/17 07:19:35;;;;;;;0.40;0.30;;;19.20;96.20;;;;;;5014643;28;20431;-68
2022/07/17 07:22:01;;;;;;;0.50;0.50;;;19.30;95.80;;;;;;4997357;28;20393;-72
2022/07/17 07:24:27;;;;;;;0.40;0.30;;;19.30;96.00;;;;;;5028646;28;20403;-70
2022/07/17 07:26:52;;;;;;;0.40;0.30;;;19.30;96.20;;;;;;5029931;28;20455;-71
2022/07/17 07:29:18;;;;;;;0.40;0.30;;;19.60;95.50;;;;;;5030542;28;20518;-70
2022/07/17 07:31:44;;;;;;;0.40;0.30;;;19.60;94.70;;;;;;5024637;28;20775;-73
2022/07/17 07:34:10;;;;;;;0.40;0.30;;;19.70;94.90;;;;;;5010007;28;20695;-71
2022/07/17 07:36:35;;;;;;;0.40;0.30;;;19.70;94.80;;;;;;5024691;28;20401;-71
2022/07/17 07:39:01;;;;;;;0.40;0.30;;;19.80;94.90;;;;;;5023050;28;20443;-73
2022/07/17 07:41:27;;;;;;;0.40;0.40;;;20.00;94.20;;;;;;5015616;28;20389;-69
2022/07/17 07:43:53;;;;;;;0.40;0.30;;;20.10;93.90;;;;;;5016672;28;20396;-70
2022/07/17 07:46:19;;;;;;;0.60;0.60;;;20.20;93.50;;;;;;5025006;28;20429;-69
2022/07/17 07:48:45;;;;;;;0.40;0.30;;;20.20;93.10;;;;;;5021246;28;20415;-72
2022/07/17 07:51:12;;;;;;;0.40;0.30;;;20.30;93.10;;;;;;5010288;28;20741;-70
2022/07/17 07:53:38;;;;;;;0.40;0.20;;;20.50;92.70;;;;;;5024558;28;20410;-70
2022/07/17 07:56:04;;;;;;;0.40;0.30;;;20.50;92.40;;;;;;5029045;28;20398;-69
2022/07/17 07:58:29;;;;;;;0.40;0.20;;;20.60;91.50;;;;;;5017228;28;20411;-69
2022/07/17 08:00:55;;;;;;;0.40;0.30;;;20.70;91.80;;;;;;5024159;28;20407;-69
2022/07/17 08:03:21;;;;;;;0.40;0.20;;;20.70;91.80;;;;;;5018805;28;20385;-71
2022/07/17 08:05:46;;;;;;;0.40;0.20;;;20.70;91.80;;;;;;5018967;28;20418;-70
2022/07/17 08:08:12;;;;;;;0.40;0.30;;;20.80;90.90;;;;;;5018140;28;20538;-66
2022/07/17 08:10:38;;;;;;;0.43;0.33;;;20.90;91.30;;;;;;5018116;28;20399;-71
2022/07/17 08:13:03;;;;;;;0.40;0.20;;;21.00;90.70;;;;;;5017313;28;20393;-69
2022/07/17 08:15:30;;;;;;;0.40;0.30;;;21.00;90.50;;;;;;5009630;28;20385;-71
2022/07/17 08:17:55;;;;;;;0.40;0.30;;;21.10;90.60;;;;;;5009175;28;20419;-69
2022/07/17 08:20:22;;;;;;;0.52;0.50;;;21.20;90.50;;;;;;5013379;28;20404;-70
2022/07/17 08:22:48;;;;;;;0.40;0.30;;;21.20;90.70;;;;;;5017875;28;20391;-73
2022/07/17 08:25:14;;;;;;;0.40;0.27;;;21.30;91.10;;;;;;5025046;28;20777;-72
2022/07/17 08:27:42;;;;;;;0.40;0.30;;;21.20;89.90;;;;;;5023012;28;20429;-71
2022/07/17 08:30:09;;;;;;;0.40;0.30;;;21.20;91.00;;;;;;5020920;28;20407;-71
2022/07/17 08:32:35;;;;;;;0.40;0.30;;;21.40;90.40;;;;;;5011281;28;20394;-68
2022/07/17 08:35:02;;;;;;;0.40;0.30;;;21.30;90.40;;;;;;5008224;28;20392;-71
2022/07/17 08:37:28;;;;;;;0.40;0.20;;;21.30;90.60;;;;;;5009443;28;20859;-73
2022/07/17 08:39:55;;;;;;;0.50;0.45;;;21.50;90.20;;;;;;5009387;28;20481;-72
2022/07/17 08:42:20;;;;;;;0.40;0.30;;;21.60;90.40;;;;;;5011654;28;20515;-71
2022/07/17 08:44:46;;;;;;;0.40;0.30;;;21.70;90.10;;;;;;5018767;28;20498;-72
2022/07/17 08:47:13;;;;;;;0.70;0.70;;;21.70;89.30;;;;;;5020912;28;20568;-71
2022/07/17 08:49:44;;;;;;;0.40;0.20;;;21.70;89.30;;;;;;5016691;28;20425;-70
2022/07/17 08:52:11;;;;;;;0.40;0.30;;;21.80;89.30;;;;;;5015236;28;20415;-71
2022/07/17 08:54:37;;;;;;;0.40;0.30;;;22.00;89.10;;;;;;5021971;28;20370;-67
2022/07/17 08:57:03;;;;;;;0.40;0.30;;;22.00;85.50;;;;;;5017686;28;20423;-70
2022/07/17 08:59:29;;;;;;;0.40;0.30;;;22.00;86.20;;;;;;5028796;28;20441;-68
2022/07/17 09:01:55;;;;;;;0.40;0.30;;;22.10;86.00;;;;;;5029131;28;20390;-69
2022/07/17 09:04:21;;;;;;;0.40;0.30;;;22.30;86.20;;;;;;5028770;28;20386;-70
2022/07/17 09:07:02;;;;;;;0.40;0.30;;;22.30;85.40;;;;;;5029350;28;20386;-71
2022/07/17 09:09:28;;;;;;;0.40;0.30;;;22.30;85.40;;;;;;5028603;28;20403;-71
2022/07/17 09:11:55;;;;;;;0.40;0.30;;;22.30;85.80;;;;;;5026224;28;20474;-71
2022/07/17 09:14:21;;;;;;;0.40;0.30;;;22.50;84.80;;;;;;5008504;28;20403;-70
2022/07/17 09:16:48;;;;;;;0.40;0.30;;;22.80;83.70;;;;;;5009044;28;20402;-68
2022/07/17 09:19:25;;;;;;;0.40;0.20;;;22.90;82.30;;;;;;5008418;28;20789;-72
2022/07/17 09:21:51;;;;;;;0.85;0.85;;;22.90;81.30;;;;;;5009129;28;20459;-70
2022/07/17 09:24:16;;;;;;;0.70;0.50;;;23.00;82.30;;;;;;5008680;28;20416;-71
2022/07/17 09:26:47;;;;;;;1.70;0.52;;;22.90;80.40;;;;;;5009284;28;20426;-68
2022/07/17 09:29:13;;;;;;;0.40;0.30;;;23.20;80.80;;;;;;5012113;28;20509;-70
2022/07/17 09:31:39;;;;;;;0.50;0.50;;;23.20;80.40;;;;;;5023530;28;20667;-71
2022/07/17 09:34:04;;;;;;;1.30;0.90;;;23.30;81.50;;;;;;5020234;28;20396;-68
2022/07/17 09:36:30;;;;;;;0.40;0.30;;;23.60;81.00;;;;;;5009232;28;20874;-69
2022/07/17 09:38:58;;;;;;;0.40;0.30;;;23.60;79.50;;;;;;5018298;28;20486;-69
2022/07/17 09:41:26;;;;;;;0.40;0.20;;;23.60;80.10;;;;;;5028521;28;20390;-71
2022/07/17 09:43:54;;;;;;;0.40;0.30;;;23.60;80.40;;;;;;5028353;28;20952;-67
2022/07/17 09:46:24;;;;;;;0.40;0.30;;;23.60;78.90;;;;;;5020845;28;20485;-68
2022/07/17 09:48:55;;;;;;;0.40;0.30;;;23.80;78.50;;;;;;5008903;28;20424;-71
2022/07/17 09:51:30;;;;;;;0.40;0.30;;;23.80;79.50;;;;;;5008210;28;20865;-68
2022/07/17 09:53:58;;;;;;;0.70;0.70;;;23.90;77.50;;;;;;5008619;28;20846;-69
2022/07/17 09:56:26;;;;;;;0.40;0.30;;;23.90;77.70;;;;;;5007806;28;20459;-68
2022/07/17 09:59:00;;;;;;;0.40;0.20;;;23.90;76.10;;;;;;5008423;28;20946;-70
2022/07/17 10:01:26;;;;;;;0.40;0.20;;;23.90;76.80;;;;;;5024801;28;20406;-68
2022/07/17 10:03:54;;;;;;;0.40;0.20;;;24.00;75.40;;;;;;5026435;28;20433;-66
2022/07/17 10:06:25;;;;;;;0.40;0.20;;;24.30;74.70;;;;;;5023702;28;20399;-67
2022/07/17 10:08:51;;;;;;;0.40;0.30;;;24.20;74.40;;;;;;5016654;28;20441;-66
2022/07/17 10:11:23;;;;;;;0.40;0.20;;;24.40;73.60;;;;;;5017431;28;20461;-67
2022/07/17 10:13:51;;;;;;;0.40;0.30;;;24.40;72.30;;;;;;5015775;28;20389;-70
2022/07/17 10:16:29;;;;;;;0.40;0.20;;;24.40;72.80;;;;;;5016089;28;20385;-68
2022/07/17 10:18:57;;;;;;;0.50;0.30;;;24.50;72.50;;;;;;5016315;28;20443;-66
2022/07/17 10:21:24;;;;;;;0.50;0.40;;;24.70;70.90;;;;;;5014429;28;20385;-67
2022/07/17 10:23:53;;;;;;;0.40;0.30;;;24.80;70.70;;;;;;5008007;28;20804;-65
2022/07/17 10:26:51;;;;;;;0.40;0.20;;;24.80;69.60;;;;;;5007251;28;20483;-69
2022/07/17 10:29:36;;;;;;;0.40;0.30;;;24.90;69.20;;;;;;4963954;28;20536;-68
2022/07/17 10:32:13;;;;;;;0.40;0.20;;;25.00;69.50;;;;;;5007897;28;20392;-70
2022/07/17 10:34:52;;;;;;;0.40;0.30;;;25.10;68.50;;;;;;5008151;28;20729;-68
2022/07/17 10:37:41;;;;;;;0.40;0.20;;;25.20;68.20;;;;;;5007220;28;20407;-69
2022/07/17 10:40:15;;;;;;;0.40;0.30;;;25.40;67.30;;;;;;4979265;28;20781;-66
2022/07/17 10:42:49;;;;;;;0.40;0.30;;;25.40;67.00;;;;;;5008232;28;20469;-68
2022/07/17 10:45:26;;;;;;;0.40;0.30;;;25.40;65.70;;;;;;5007860;28;20377;-69
2022/07/17 10:48:05;;;;;;;0.40;0.20;;;25.50;66.90;;;;;;5007926;28;20715;-66
2022/07/17 10:50:55;;;;;;;0.40;0.30;;;25.60;64.80;;;;;;5007668;28;20380;-69
2022/07/17 10:53:29;;;;;;;0.50;0.30;;;25.90;65.00;;;;;;5007374;28;20778;-65
2022/07/17 10:56:04;;;;;;;0.40;0.20;;;25.70;63.50;;;;;;5007518;28;20403;-68
2022/07/17 10:58:44;;;;;;;0.40;0.20;;;25.60;63.10;;;;;;5007368;28;20501;-68
2022/07/17 11:01:20;;;;;;;0.40;0.20;;;25.90;62.60;;;;;;5011841;28;20559;-68
2022/07/17 11:03:48;;;;;;;0.40;0.30;;;26.00;62.40;;;;;;5016825;28;20852;-66
2022/07/17 11:06:21;;;;;;;0.70;0.70;;;25.90;62.20;;;;;;5021977;28;20456;-68
2022/07/17 11:08:49;;;;;;;0.40;0.20;;;26.10;62.00;;;;;;5018803;28;20954;-66
2022/07/17 11:11:16;;;;;;;0.40;0.30;;;26.10;61.30;;;;;;5022018;28;20461;-67
2022/07/17 11:13:42;;;;;;;0.40;0.20;;;26.30;61.60;;;;;;5018320;28;20849;-67
2022/07/17 11:16:08;;;;;;;0.40;0.20;;;26.40;61.20;;;;;;5021376;28;20383;-68
2022/07/17 11:18:36;;;;;;;0.40;0.30;;;26.50;60.30;;;;;;5015202;28;20395;-66
2022/07/17 11:21:04;;;;;;;0.40;0.20;;;26.50;59.90;;;;;;5016146;28;20407;-69
2022/07/17 11:23:33;;;;;;;0.40;0.20;;;26.80;61.00;;;;;;5017139;28;20380;-66
2022/07/17 11:26:03;;;;;;;0.40;0.20;;;26.70;59.40;;;;;;5018103;28;20482;-66
2022/07/17 11:28:35;;;;;;;0.40;0.20;;;26.90;58.90;;;;;;5016279;28;20809;-67
2022/07/17 11:31:04;;;;;;;0.40;0.30;;;27.00;58.30;;;;;;5019698;28;20401;-69
2022/07/17 11:33:29;;;;;;;0.40;0.30;;;27.50;57.50;;;;;;5024120;28;20553;-70
2022/07/17 11:35:55;;;;;;;0.40;0.20;;;27.50;57.20;;;;;;5019543;28;20391;-69
2022/07/17 11:38:29;;;;;;;0.40;0.20;;;27.60;57.20;;;;;;5013050;28;20484;-68
2022/07/17 11:40:55;;;;;;;0.40;0.20;;;28.10;59.20;;;;;;5019398;28;20430;-69
2022/07/17 11:43:21;;;;;;;0.40;0.20;;;28.20;58.00;;;;;;5030105;28;20383;-70
2022/07/17 11:45:47;;;;;;;0.40;0.20;;;29.00;55.10;;;;;;5022304;28;20492;-69
2022/07/17 11:48:13;;;;;;;0.40;0.20;;;29.40;54.90;;;;;;5020712;28;20438;-70
2022/07/17 11:50:38;;;;;;;0.40;0.22;;;29.70;53.40;;;;;;5021622;28;20402;-69
2022/07/17 11:53:05;;;;;;;0.40;0.20;;;30.20;52.20;;;;;;5016010;28;20475;-70
2022/07/17 11:55:36;;;;;;;0.40;0.20;;;30.80;50.90;;;;;;5010108;28;20399;-70
2022/07/17 11:58:02;;;;;;;0.40;0.20;;;31.70;49.80;;;;;;5017824;28;20513;-70
2022/07/17 12:00:28;;;;;;;0.40;0.20;;;31.60;48.50;;;;;;5028269;28;20523;-69
2022/07/17 12:03:05;;;;;;;0.40;0.20;;;31.70;48.00;;;;;;5028972;28;20403;-69
2022/07/17 12:05:33;;;;;;;0.40;0.20;;;32.00;46.90;;;;;;5029581;28;20950;-70
2022/07/17 12:07:59;;;;;;;0.40;0.20;;;32.30;45.20;;;;;;5013447;28;20648;-66
2022/07/17 12:10:27;;;;;;;0.40;0.20;;;32.50;44.90;;;;;;5009889;28;20710;-69
2022/07/17 12:12:57;;;;;;;0.40;0.20;;;32.00;44.60;;;;;;5015583;28;20389;-69
2022/07/17 12:15:48;;;;;;;0.40;0.20;;;32.30;45.50;;;;;;5014518;28;20780;-67
2022/07/17 12:18:21;;;;;;;0.40;0.20;;;31.90;43.90;;;;;;5009697;28;20488;-69
2022/07/17 12:20:50;;;;;;;0.40;0.20;;;31.20;46.10;;;;;;5010301;28;20464;-69
2022/07/17 12:23:38;;;;;;;0.40;0.20;;;31.60;45.20;;;;;;5009782;28;20377;-68
2022/07/17 12:26:04;;;;;;;0.40;0.20;;;32.40;45.70;;;;;;5015661;28;20479;-69
2022/07/17 12:28:30;;;;;;;0.40;0.20;;;32.60;42.70;;;;;;5017239;28;20409;-68
2022/07/17 12:30:56;;;;;;;0.40;0.20;;;32.60;42.40;;;;;;5009816;28;20385;-66
2022/07/17 12:33:21;;;;;;;0.40;0.20;;;31.80;42.50;;;;;;5009582;28;20380;-68
2022/07/17 12:35:47;;;;;;;0.40;0.30;;;32.00;43.00;;;;;;5009230;28;20416;-68
2022/07/17 12:38:13;;;;;;;0.40;0.20;;;31.50;42.40;;;;;;5008906;28;20381;-69
2022/07/17 12:40:38;;;;;;;0.40;0.20;;;31.70;44.60;;;;;;5009325;28;20454;-68
2022/07/17 12:43:04;;;;;;;0.40;0.20;;;31.10;45.50;;;;;;5008580;28;20451;-69
2022/07/17 12:45:30;;;;;;;0.40;0.20;;;32.00;44.30;;;;;;5009429;28;20672;-69
2022/07/17 12:47:56;;;;;;;0.40;0.20;;;31.50;43.00;;;;;;5009631;28;20408;-68